sensor_id;sensor_type;location;lat;lon;timestamp;temperature;humidity
58309;DHT22;44117;57.142;24.826;2022-11-20T00:00:54;-4.00;99.90
58309;DHT22;44117;57.142;24.826;2022-11-20T00:03:22;-3.90;99.90
58309;DHT22;44117;57.142;24.826;2022-11-20T00:05:49;-4.00;99.90
58309;DHT22;44117;57.142;24.826;2022-11-20T00:08:16;-4.00;99.90
58309;DHT22;44117;57.142;24.826;2022-11-20T00:10:43;-4.10;99.90
58309;DHT22;44117;57.142;24.826;2022-11-20T00:13:11;-4.10;99.90
58309;DHT22;44117;57.142;24.826;2022-11-20T00:15:38;-4.10;99.90
58309;DHT22;44117;57.142;24.826;2022-11-20T00:18:05;-4.00;99.90
58309;DHT22;44117;57.142;24.826;2022-11-20T00:20:32;-3.90;99.90
58309;DHT22;44117;57.142;24.826;2022-11-20T00:22:59;-4.00;99.90
58309;DHT22;44117;57.142;24.826;2022-11-20T00:25:26;-4.10;99.90
58309;DHT22;44117;57.142;24.826;2022-11-20T00:27:54;-4.10;99.90
58309;DHT22;44117;57.142;24.826;2022-11-20T00:30:21;-4.20;99.90
58309;DHT22;44117;57.142;24.826;2022-11-20T00:32:48;-4.10;99.90
58309;DHT22;44117;57.142;24.826;2022-11-20T00:35:15;-4.10;99.90
58309;DHT22;44117;57.142;24.826;2022-11-20T00:37:42;-4.10;99.90
58309;DHT22;44117;57.142;24.826;2022-11-20T00:40:10;-4.10;99.90
58309;DHT22;44117;57.142;24.826;2022-11-20T00:42:37;-4.10;99.90
58309;DHT22;44117;57.142;24.826;2022-11-20T00:45:05;-4.00;99.90
58309;DHT22;44117;57.142;24.826;2022-11-20T00:47:32;-3.90;99.90
58309;DHT22;44117;57.142;24.826;2022-11-20T00:49:59;-4.00;99.90
58309;DHT22;44117;57.142;24.826;2022-11-20T00:52:27;-4.00;99.90
58309;DHT22;44117;57.142;24.826;2022-11-20T00:54:54;-4.00;99.90
58309;DHT22;44117;57.142;24.826;2022-11-20T00:57:21;-4.00;99.90
58309;DHT22;44117;57.142;24.826;2022-11-20T00:59:48;-4.00;99.90
58309;DHT22;44117;57.142;24.826;2022-11-20T01:02:16;-4.00;99.90
58309;DHT22;44117;57.142;24.826;2022-11-20T01:04:43;-4.00;99.90
58309;DHT22;44117;57.142;24.826;2022-11-20T01:07:10;-4.00;99.90
58309;DHT22;44117;57.142;24.826;2022-11-20T01:09:38;-4.00;99.90
58309;DHT22;44117;57.142;24.826;2022-11-20T01:12:05;-4.00;99.90
58309;DHT22;44117;57.142;24.826;2022-11-20T01:14:32;-4.00;99.90
58309;DHT22;44117;57.142;24.826;2022-11-20T01:17:00;-4.00;99.90
58309;DHT22;44117;57.142;24.826;2022-11-20T01:19:27;-4.10;99.90
58309;DHT22;44117;57.142;24.826;2022-11-20T01:21:54;-4.20;99.90
58309;DHT22;44117;57.142;24.826;2022-11-20T01:24:22;-4.30;99.90
58309;DHT22;44117;57.142;24.826;2022-11-20T01:26:50;-4.30;99.90
58309;DHT22;44117;57.142;24.826;2022-11-20T01:29:20;-4.40;99.90
58309;DHT22;44117;57.142;24.826;2022-11-20T01:31:49;-4.40;99.90
58309;DHT22;44117;57.142;24.826;2022-11-20T01:34:18;-4.50;99.90
58309;DHT22;44117;57.142;24.826;2022-11-20T01:36:46;-4.50;99.90
58309;DHT22;44117;57.142;24.826;2022-11-20T01:39:21;-4.50;99.90
58309;DHT22;44117;57.142;24.826;2022-11-20T01:41:51;-4.50;99.90
58309;DHT22;44117;57.142;24.826;2022-11-20T01:47:45;-4.50;99.90
58309;DHT22;44117;57.142;24.826;2022-11-20T01:50:17;-4.50;99.90
58309;DHT22;44117;57.142;24.826;2022-11-20T01:52:55;-4.60;99.90
58309;DHT22;44117;57.142;24.826;2022-11-20T01:55:26;-4.60;99.90
58309;DHT22;44117;57.142;24.826;2022-11-20T01:57:55;-4.60;99.90
58309;DHT22;44117;57.142;24.826;2022-11-20T02:00:23;-4.60;99.90
58309;DHT22;44117;57.142;24.826;2022-11-20T02:03:06;-4.60;99.90
58309;DHT22;44117;57.142;24.826;2022-11-20T02:08:24;-4.50;99.90
58309;DHT22;44117;57.142;24.826;2022-11-20T02:10:51;-4.50;99.90
58309;DHT22;44117;57.142;24.826;2022-11-20T02:13:18;-4.50;99.90
58309;DHT22;44117;57.142;24.826;2022-11-20T02:16:04;-4.50;99.90
58309;DHT22;44117;57.142;24.826;2022-11-20T02:18:35;-4.60;99.90
58309;DHT22;44117;57.142;24.826;2022-11-20T02:21:08;-4.50;99.90
58309;DHT22;44117;57.142;24.826;2022-11-20T02:23:54;-4.50;99.90
58309;DHT22;44117;57.142;24.826;2022-11-20T02:26:22;-4.50;99.90
58309;DHT22;44117;57.142;24.826;2022-11-20T02:28:50;-4.60;99.90
58309;DHT22;44117;57.142;24.826;2022-11-20T02:31:18;-4.60;99.90
58309;DHT22;44117;57.142;24.826;2022-11-20T02:33:45;-4.50;99.90
58309;DHT22;44117;57.142;24.826;2022-11-20T02:36:15;-4.60;99.90
58309;DHT22;44117;57.142;24.826;2022-11-20T02:38:43;-4.50;99.90
58309;DHT22;44117;57.142;24.826;2022-11-20T02:41:10;-4.50;99.90
58309;DHT22;44117;57.142;24.826;2022-11-20T02:43:37;-4.50;99.90
58309;DHT22;44117;57.142;24.826;2022-11-20T02:46:07;-4.50;99.90
58309;DHT22;44117;57.142;24.826;2022-11-20T02:48:34;-4.50;99.90
58309;DHT22;44117;57.142;24.826;2022-11-20T02:51:02;-4.60;99.90
58309;DHT22;44117;57.142;24.826;2022-11-20T02:53:29;-4.50;99.90
58309;DHT22;44117;57.142;24.826;2022-11-20T02:55:56;-4.50;99.90
58309;DHT22;44117;57.142;24.826;2022-11-20T02:58:24;-4.60;99.90
58309;DHT22;44117;57.142;24.826;2022-11-20T03:00:52;-4.60;99.90
58309;DHT22;44117;57.142;24.826;2022-11-20T03:03:19;-4.60;99.90
58309;DHT22;44117;57.142;24.826;2022-11-20T03:05:46;-4.60;99.90
58309;DHT22;44117;57.142;24.826;2022-11-20T03:08:14;-4.60;99.90
58309;DHT22;44117;57.142;24.826;2022-11-20T03:10:41;-4.60;99.90
58309;DHT22;44117;57.142;24.826;2022-11-20T03:13:08;-4.60;99.90
58309;DHT22;44117;57.142;24.826;2022-11-20T03:15:36;-4.60;99.90
58309;DHT22;44117;57.142;24.826;2022-11-20T03:18:04;-4.60;99.90
58309;DHT22;44117;57.142;24.826;2022-11-20T03:20:32;-4.60;99.90
58309;DHT22;44117;57.142;24.826;2022-11-20T03:23:00;-4.60;99.90
58309;DHT22;44117;57.142;24.826;2022-11-20T03:25:28;-4.60;99.90
58309;DHT22;44117;57.142;24.826;2022-11-20T03:27:55;-4.60;99.90
58309;DHT22;44117;57.142;24.826;2022-11-20T03:30:22;-4.60;99.90
58309;DHT22;44117;57.142;24.826;2022-11-20T03:32:56;-4.60;99.90
58309;DHT22;44117;57.142;24.826;2022-11-20T03:35:23;-4.70;99.90
58309;DHT22;44117;57.142;24.826;2022-11-20T03:37:50;-4.60;99.90
58309;DHT22;44117;57.142;24.826;2022-11-20T03:40:18;-4.70;99.90
58309;DHT22;44117;57.142;24.826;2022-11-20T03:42:45;-4.60;99.90
58309;DHT22;44117;57.142;24.826;2022-11-20T03:45:17;-4.60;99.90
58309;DHT22;44117;57.142;24.826;2022-11-20T03:47:45;-4.60;99.90
58309;DHT22;44117;57.142;24.826;2022-11-20T03:50:13;-4.70;99.90
58309;DHT22;44117;57.142;24.826;2022-11-20T03:52:41;-4.70;99.90
58309;DHT22;44117;57.142;24.826;2022-11-20T03:55:09;-4.70;99.90
58309;DHT22;44117;57.142;24.826;2022-11-20T03:57:36;-4.70;99.90
58309;DHT22;44117;57.142;24.826;2022-11-20T04:00:04;-4.70;99.90
58309;DHT22;44117;57.142;24.826;2022-11-20T04:02:32;-4.70;99.90
58309;DHT22;44117;57.142;24.826;2022-11-20T04:04:59;-4.80;99.90
58309;DHT22;44117;57.142;24.826;2022-11-20T04:07:26;-4.70;99.90
58309;DHT22;44117;57.142;24.826;2022-11-20T04:09:54;-4.70;99.90
58309;DHT22;44117;57.142;24.826;2022-11-20T04:12:21;-4.70;99.90
58309;DHT22;44117;57.142;24.826;2022-11-20T04:14:48;-4.80;99.90
58309;DHT22;44117;57.142;24.826;2022-11-20T04:17:15;-4.70;99.90
58309;DHT22;44117;57.142;24.826;2022-11-20T04:19:43;-4.70;99.90
58309;DHT22;44117;57.142;24.826;2022-11-20T04:22:10;-4.70;99.90
58309;DHT22;44117;57.142;24.826;2022-11-20T04:24:38;-4.70;99.90
58309;DHT22;44117;57.142;24.826;2022-11-20T04:27:06;-4.80;99.90
58309;DHT22;44117;57.142;24.826;2022-11-20T04:29:33;-4.80;99.90
58309;DHT22;44117;57.142;24.826;2022-11-20T04:32:00;-4.70;99.90
58309;DHT22;44117;57.142;24.826;2022-11-20T04:34:28;-4.70;99.90
58309;DHT22;44117;57.142;24.826;2022-11-20T04:36:55;-4.70;99.90
58309;DHT22;44117;57.142;24.826;2022-11-20T04:39:22;-4.70;99.90
58309;DHT22;44117;57.142;24.826;2022-11-20T04:41:50;-4.70;99.90
58309;DHT22;44117;57.142;24.826;2022-11-20T04:44:37;-4.80;99.90
58309;DHT22;44117;57.142;24.826;2022-11-20T04:47:04;-4.70;99.90
58309;DHT22;44117;57.142;24.826;2022-11-20T04:49:32;-4.80;99.90
58309;DHT22;44117;57.142;24.826;2022-11-20T04:51:59;-4.80;99.90
58309;DHT22;44117;57.142;24.826;2022-11-20T04:54:26;-4.80;99.90
58309;DHT22;44117;57.142;24.826;2022-11-20T04:56:54;-4.80;99.90
58309;DHT22;44117;57.142;24.826;2022-11-20T04:59:21;-4.80;99.90
58309;DHT22;44117;57.142;24.826;2022-11-20T05:01:49;-4.80;99.90
58309;DHT22;44117;57.142;24.826;2022-11-20T05:04:16;-4.80;99.90
58309;DHT22;44117;57.142;24.826;2022-11-20T05:06:43;-4.80;99.90
58309;DHT22;44117;57.142;24.826;2022-11-20T05:09:12;-4.80;99.90
58309;DHT22;44117;57.142;24.826;2022-11-20T05:11:40;-4.80;99.90
58309;DHT22;44117;57.142;24.826;2022-11-20T05:14:07;-4.80;99.90
58309;DHT22;44117;57.142;24.826;2022-11-20T05:16:34;-4.80;99.90
58309;DHT22;44117;57.142;24.826;2022-11-20T05:19:02;-4.80;99.90
58309;DHT22;44117;57.142;24.826;2022-11-20T05:21:30;-4.80;99.90
58309;DHT22;44117;57.142;24.826;2022-11-20T05:23:59;-4.80;99.90
58309;DHT22;44117;57.142;24.826;2022-11-20T05:26:26;-4.80;99.90
58309;DHT22;44117;57.142;24.826;2022-11-20T05:28:53;-4.80;99.90
58309;DHT22;44117;57.142;24.826;2022-11-20T05:31:23;-4.80;99.90
58309;DHT22;44117;57.142;24.826;2022-11-20T05:33:55;-4.80;99.90
58309;DHT22;44117;57.142;24.826;2022-11-20T05:36:23;-4.80;99.90
58309;DHT22;44117;57.142;24.826;2022-11-20T05:38:51;-4.80;99.90
58309;DHT22;44117;57.142;24.826;2022-11-20T05:41:25;-4.80;99.90
58309;DHT22;44117;57.142;24.826;2022-11-20T05:43:52;-4.80;99.90
58309;DHT22;44117;57.142;24.826;2022-11-20T05:46:20;-4.80;99.90
58309;DHT22;44117;57.142;24.826;2022-11-20T05:48:55;-4.80;99.90
58309;DHT22;44117;57.142;24.826;2022-11-20T05:51:24;-4.80;99.90
58309;DHT22;44117;57.142;24.826;2022-11-20T05:53:51;-4.70;99.90
58309;DHT22;44117;57.142;24.826;2022-11-20T05:56:20;-4.70;99.90
58309;DHT22;44117;57.142;24.826;2022-11-20T05:58:48;-4.70;99.90
58309;DHT22;44117;57.142;24.826;2022-11-20T06:01:21;-4.70;99.90
58309;DHT22;44117;57.142;24.826;2022-11-20T06:03:49;-4.70;99.90
58309;DHT22;44117;57.142;24.826;2022-11-20T06:06:18;-4.70;99.90
58309;DHT22;44117;57.142;24.826;2022-11-20T06:08:47;-4.70;99.90
58309;DHT22;44117;57.142;24.826;2022-11-20T06:11:15;-4.70;99.90
58309;DHT22;44117;57.142;24.826;2022-11-20T06:13:43;-4.70;99.90
58309;DHT22;44117;57.142;24.826;2022-11-20T06:16:12;-4.70;99.90
58309;DHT22;44117;57.142;24.826;2022-11-20T06:18:40;-4.70;99.90
58309;DHT22;44117;57.142;24.826;2022-11-20T06:21:10;-4.70;99.90
58309;DHT22;44117;57.142;24.826;2022-11-20T06:23:38;-4.70;99.90
58309;DHT22;44117;57.142;24.826;2022-11-20T06:26:08;-4.70;99.90
58309;DHT22;44117;57.142;24.826;2022-11-20T06:28:36;-4.60;99.90
58309;DHT22;44117;57.142;24.826;2022-11-20T06:31:05;-4.70;99.90
58309;DHT22;44117;57.142;24.826;2022-11-20T06:33:32;-4.60;99.90
58309;DHT22;44117;57.142;24.826;2022-11-20T06:36:00;-4.60;99.90
58309;DHT22;44117;57.142;24.826;2022-11-20T06:38:36;-4.60;99.90
58309;DHT22;44117;57.142;24.826;2022-11-20T06:41:04;-4.60;99.90
58309;DHT22;44117;57.142;24.826;2022-11-20T06:43:31;-4.60;99.90
58309;DHT22;44117;57.142;24.826;2022-11-20T06:45:59;-4.60;99.90
58309;DHT22;44117;57.142;24.826;2022-11-20T06:48:27;-4.50;99.90
58309;DHT22;44117;57.142;24.826;2022-11-20T06:50:56;-4.50;99.90
58309;DHT22;44117;57.142;24.826;2022-11-20T06:53:23;-4.50;99.90
58309;DHT22;44117;57.142;24.826;2022-11-20T06:55:51;-4.50;99.90
58309;DHT22;44117;57.142;24.826;2022-11-20T06:58:18;-4.50;99.90
58309;DHT22;44117;57.142;24.826;2022-11-20T07:00:46;-4.50;99.90
58309;DHT22;44117;57.142;24.826;2022-11-20T07:03:13;-4.40;99.90
58309;DHT22;44117;57.142;24.826;2022-11-20T07:05:41;-4.40;99.90
58309;DHT22;44117;57.142;24.826;2022-11-20T07:08:09;-4.40;99.90
58309;DHT22;44117;57.142;24.826;2022-11-20T07:10:37;-4.40;99.90
58309;DHT22;44117;57.142;24.826;2022-11-20T07:13:04;-4.40;99.90
58309;DHT22;44117;57.142;24.826;2022-11-20T07:15:31;-4.40;99.90
58309;DHT22;44117;57.142;24.826;2022-11-20T07:17:59;-4.30;99.90
58309;DHT22;44117;57.142;24.826;2022-11-20T07:20:27;-4.30;99.90
58309;DHT22;44117;57.142;24.826;2022-11-20T07:22:55;-4.30;99.90
58309;DHT22;44117;57.142;24.826;2022-11-20T07:25:26;-4.20;99.90
58309;DHT22;44117;57.142;24.826;2022-11-20T07:28:00;-4.20;99.90
58309;DHT22;44117;57.142;24.826;2022-11-20T07:30:28;-4.20;99.90
58309;DHT22;44117;57.142;24.826;2022-11-20T07:32:56;-4.20;99.90
58309;DHT22;44117;57.142;24.826;2022-11-20T07:35:24;-4.20;99.90
58309;DHT22;44117;57.142;24.826;2022-11-20T07:37:51;-4.10;99.90
58309;DHT22;44117;57.142;24.826;2022-11-20T07:40:19;-4.10;99.90
58309;DHT22;44117;57.142;24.826;2022-11-20T07:42:50;-4.00;99.90
58309;DHT22;44117;57.142;24.826;2022-11-20T07:45:22;-4.00;99.90
58309;DHT22;44117;57.142;24.826;2022-11-20T07:47:50;-4.00;99.90
58309;DHT22;44117;57.142;24.826;2022-11-20T07:50:18;-3.90;99.90
58309;DHT22;44117;57.142;24.826;2022-11-20T07:52:46;-3.90;99.90
58309;DHT22;44117;57.142;24.826;2022-11-20T07:55:13;-3.70;99.90
58309;DHT22;44117;57.142;24.826;2022-11-20T07:57:40;-3.50;99.90
58309;DHT22;44117;57.142;24.826;2022-11-20T08:00:09;-3.50;99.90
58309;DHT22;44117;57.142;24.826;2022-11-20T08:02:38;-3.50;99.90
58309;DHT22;44117;57.142;24.826;2022-11-20T08:05:07;-3.40;99.90
58309;DHT22;44117;57.142;24.826;2022-11-20T08:07:38;-3.40;99.90
58309;DHT22;44117;57.142;24.826;2022-11-20T08:10:07;-3.30;99.90
58309;DHT22;44117;57.142;24.826;2022-11-20T08:12:35;-3.30;99.90
58309;DHT22;44117;57.142;24.826;2022-11-20T08:15:20;-3.30;99.90
58309;DHT22;44117;57.142;24.826;2022-11-20T08:17:47;-3.20;99.90
58309;DHT22;44117;57.142;24.826;2022-11-20T08:20:35;-3.20;99.90
58309;DHT22;44117;57.142;24.826;2022-11-20T08:23:05;-3.20;99.90
58309;DHT22;44117;57.142;24.826;2022-11-20T08:25:34;-3.20;99.90
58309;DHT22;44117;57.142;24.826;2022-11-20T08:28:04;-3.10;99.90
58309;DHT22;44117;57.142;24.826;2022-11-20T08:30:45;-3.20;99.90
58309;DHT22;44117;57.142;24.826;2022-11-20T08:33:13;-3.10;99.90
58309;DHT22;44117;57.142;24.826;2022-11-20T08:35:40;-3.10;99.90
58309;DHT22;44117;57.142;24.826;2022-11-20T08:38:08;-3.10;99.90
58309;DHT22;44117;57.142;24.826;2022-11-20T08:40:36;-2.90;99.90
58309;DHT22;44117;57.142;24.826;2022-11-20T08:43:03;-2.90;99.90
58309;DHT22;44117;57.142;24.826;2022-11-20T08:45:31;-3.00;99.90
58309;DHT22;44117;57.142;24.826;2022-11-20T08:48:03;-2.90;99.90
58309;DHT22;44117;57.142;24.826;2022-11-20T08:50:31;-2.70;99.90
58309;DHT22;44117;57.142;24.826;2022-11-20T08:53:06;-2.80;99.90
58309;DHT22;44117;57.142;24.826;2022-11-20T08:55:33;-2.50;99.90
58309;DHT22;44117;57.142;24.826;2022-11-20T08:58:04;-2.30;99.90
58309;DHT22;44117;57.142;24.826;2022-11-20T09:00:32;-2.40;99.90
58309;DHT22;44117;57.142;24.826;2022-11-20T09:03:00;-2.30;99.90
58309;DHT22;44117;57.142;24.826;2022-11-20T09:05:28;-2.40;99.90
58309;DHT22;44117;57.142;24.826;2022-11-20T09:07:58;-2.30;99.90
58309;DHT22;44117;57.142;24.826;2022-11-20T09:10:27;-2.10;99.90
58309;DHT22;44117;57.142;24.826;2022-11-20T09:12:55;-2.00;99.90
58309;DHT22;44117;57.142;24.826;2022-11-20T09:15:24;-1.80;99.90
58309;DHT22;44117;57.142;24.826;2022-11-20T09:17:57;-1.90;99.90
58309;DHT22;44117;57.142;24.826;2022-11-20T09:20:26;-1.70;99.90
58309;DHT22;44117;57.142;24.826;2022-11-20T09:22:53;-1.70;99.90
58309;DHT22;44117;57.142;24.826;2022-11-20T09:25:21;-1.60;99.90
58309;DHT22;44117;57.142;24.826;2022-11-20T09:27:54;-1.50;99.90
58309;DHT22;44117;57.142;24.826;2022-11-20T09:30:22;-1.50;99.90
58309;DHT22;44117;57.142;24.826;2022-11-20T09:32:50;-1.30;99.90
58309;DHT22;44117;57.142;24.826;2022-11-20T09:35:17;-1.50;99.90
58309;DHT22;44117;57.142;24.826;2022-11-20T09:37:45;-1.60;99.90
58309;DHT22;44117;57.142;24.826;2022-11-20T09:40:24;-1.30;99.90
58309;DHT22;44117;57.142;24.826;2022-11-20T09:43:03;-1.10;99.90
58309;DHT22;44117;57.142;24.826;2022-11-20T09:48:48;-0.70;99.90
58309;DHT22;44117;57.142;24.826;2022-11-20T09:51:22;-1.20;99.90
58309;DHT22;44117;57.142;24.826;2022-11-20T09:54:19;-1.40;99.90
58309;DHT22;44117;57.142;24.826;2022-11-20T09:56:55;-1.30;99.90
58309;DHT22;44117;57.142;24.826;2022-11-20T09:59:34;-1.00;99.90
58309;DHT22;44117;57.142;24.826;2022-11-20T10:05:06;-0.70;99.90
58309;DHT22;44117;57.142;24.826;2022-11-20T10:10:30;-1.30;99.90
58309;DHT22;44117;57.142;24.826;2022-11-20T10:18:54;-1.70;99.90
58309;DHT22;44117;57.142;24.826;2022-11-20T10:30:18;-0.40;99.90
58309;DHT22;44117;57.142;24.826;2022-11-20T10:36:23;0.00;99.90
58309;DHT22;44117;57.142;24.826;2022-11-20T10:41:59;-0.20;99.90
58309;DHT22;44117;57.142;24.826;2022-11-20T10:44:28;-1.10;99.90
58309;DHT22;44117;57.142;24.826;2022-11-20T10:47:20;-1.80;99.90
58309;DHT22;44117;57.142;24.826;2022-11-20T10:49:52;-2.00;99.90
58309;DHT22;44117;57.142;24.826;2022-11-20T10:55:25;-2.50;99.90
58309;DHT22;44117;57.142;24.826;2022-11-20T10:57:55;-2.10;99.90
58309;DHT22;44117;57.142;24.826;2022-11-20T11:00:31;-1.90;99.90
58309;DHT22;44117;57.142;24.826;2022-11-20T11:02:58;-1.80;99.90
58309;DHT22;44117;57.142;24.826;2022-11-20T11:05:41;-2.00;99.90
58309;DHT22;44117;57.142;24.826;2022-11-20T11:08:15;-2.00;99.90
58309;DHT22;44117;57.142;24.826;2022-11-20T11:11:27;-1.80;99.90
58309;DHT22;44117;57.142;24.826;2022-11-20T11:13:33;-1.70;99.90
58309;DHT22;44117;57.142;24.826;2022-11-20T11:16:01;-1.10;99.90
58309;DHT22;44117;57.142;24.826;2022-11-20T11:18:34;-0.90;99.90
58309;DHT22;44117;57.142;24.826;2022-11-20T11:21:04;-0.60;99.90
58309;DHT22;44117;57.142;24.826;2022-11-20T11:23:42;-0.90;99.90
58309;DHT22;44117;57.142;24.826;2022-11-20T11:26:21;-1.30;99.90
58309;DHT22;44117;57.142;24.826;2022-11-20T11:29:02;-1.50;99.90
58309;DHT22;44117;57.142;24.826;2022-11-20T11:31:34;-1.00;99.90
58309;DHT22;44117;57.142;24.826;2022-11-20T11:34:13;-1.00;99.90
58309;DHT22;44117;57.142;24.826;2022-11-20T11:36:41;-0.60;99.90
58309;DHT22;44117;57.142;24.826;2022-11-20T11:39:14;-0.40;99.90
58309;DHT22;44117;57.142;24.826;2022-11-20T11:41:43;-0.50;99.90
58309;DHT22;44117;57.142;24.826;2022-11-20T11:44:32;-0.90;99.90
58309;DHT22;44117;57.142;24.826;2022-11-20T11:47:45;-0.90;99.90
58309;DHT22;44117;57.142;24.826;2022-11-20T11:50:18;-0.50;99.90
58309;DHT22;44117;57.142;24.826;2022-11-20T11:53:13;-0.10;99.90
58309;DHT22;44117;57.142;24.826;2022-11-20T12:07:00;0.60;99.90
58309;DHT22;44117;57.142;24.826;2022-11-20T12:09:52;0.10;99.90
58309;DHT22;44117;57.142;24.826;2022-11-20T12:12:24;0.00;99.90
58309;DHT22;44117;57.142;24.826;2022-11-20T12:14:55;-0.10;99.90
58309;DHT22;44117;57.142;24.826;2022-11-20T12:17:24;-0.20;99.90
58309;DHT22;44117;57.142;24.826;2022-11-20T12:19:51;-0.50;99.90
58309;DHT22;44117;57.142;24.826;2022-11-20T12:27:58;-0.60;99.90
58309;DHT22;44117;57.142;24.826;2022-11-20T12:30:24;-0.90;99.90
58309;DHT22;44117;57.142;24.826;2022-11-20T12:47:31;-0.70;99.90
58309;DHT22;44117;57.142;24.826;2022-11-20T12:50:17;-0.70;99.90
58309;DHT22;44117;57.142;24.826;2022-11-20T12:52:54;-0.60;99.90
58309;DHT22;44117;57.142;24.826;2022-11-20T12:58:20;-0.80;99.90
58309;DHT22;44117;57.142;24.826;2022-11-20T13:01:25;-0.90;99.90
58309;DHT22;44117;57.142;24.826;2022-11-20T13:07:08;-1.30;99.90
58309;DHT22;44117;57.142;24.826;2022-11-20T13:09:45;-1.90;99.90
58309;DHT22;44117;57.142;24.826;2022-11-20T13:12:33;-2.40;99.90
58309;DHT22;44117;57.142;24.826;2022-11-20T13:18:22;-3.30;99.90
58309;DHT22;44117;57.142;24.826;2022-11-20T13:20:50;-3.40;99.90
58309;DHT22;44117;57.142;24.826;2022-11-20T13:23:25;-3.50;99.90
58309;DHT22;44117;57.142;24.826;2022-11-20T13:26:25;-3.50;99.90
58309;DHT22;44117;57.142;24.826;2022-11-20T13:29:25;-3.60;99.90
58309;DHT22;44117;57.142;24.826;2022-11-20T13:32:02;-3.80;99.90
58309;DHT22;44117;57.142;24.826;2022-11-20T13:34:35;-3.90;99.90
58309;DHT22;44117;57.142;24.826;2022-11-20T13:37:03;-4.00;99.90
58309;DHT22;44117;57.142;24.826;2022-11-20T13:39:35;-4.10;99.90
58309;DHT22;44117;57.142;24.826;2022-11-20T13:42:23;-4.10;99.90
58309;DHT22;44117;57.142;24.826;2022-11-20T13:45:02;-4.20;99.90
58309;DHT22;44117;57.142;24.826;2022-11-20T13:47:29;-4.20;99.90
58309;DHT22;44117;57.142;24.826;2022-11-20T13:49:58;-4.30;99.90
58309;DHT22;44117;57.142;24.826;2022-11-20T13:55:48;-4.40;99.90
58309;DHT22;44117;57.142;24.826;2022-11-20T14:01:21;-4.50;99.90
58309;DHT22;44117;57.142;24.826;2022-11-20T14:03:50;-4.60;99.90
58309;DHT22;44117;57.142;24.826;2022-11-20T14:06:45;-4.70;99.90
58309;DHT22;44117;57.142;24.826;2022-11-20T14:09:27;-4.70;99.90
58309;DHT22;44117;57.142;24.826;2022-11-20T14:11:55;-4.80;99.90
58309;DHT22;44117;57.142;24.826;2022-11-20T14:14:27;-4.70;99.90
58309;DHT22;44117;57.142;24.826;2022-11-20T14:19:34;-4.70;99.90
58309;DHT22;44117;57.142;24.826;2022-11-20T14:24:49;-4.80;99.90
58309;DHT22;44117;57.142;24.826;2022-11-20T14:27:27;-4.80;99.90
58309;DHT22;44117;57.142;24.826;2022-11-20T14:29:54;-4.80;99.90
58309;DHT22;44117;57.142;24.826;2022-11-20T14:32:28;-4.80;99.90
58309;DHT22;44117;57.142;24.826;2022-11-20T14:34:59;-4.70;99.90
58309;DHT22;44117;57.142;24.826;2022-11-20T14:37:36;-4.70;99.90
58309;DHT22;44117;57.142;24.826;2022-11-20T14:40:05;-4.80;99.90
58309;DHT22;44117;57.142;24.826;2022-11-20T14:42:33;-4.80;99.90
58309;DHT22;44117;57.142;24.826;2022-11-20T14:45:01;-4.80;99.90
58309;DHT22;44117;57.142;24.826;2022-11-20T14:47:30;-4.90;99.90
58309;DHT22;44117;57.142;24.826;2022-11-20T14:49:58;-4.90;99.90
58309;DHT22;44117;57.142;24.826;2022-11-20T14:52:33;-5.00;99.90
58309;DHT22;44117;57.142;24.826;2022-11-20T14:55:00;-4.90;99.90
58309;DHT22;44117;57.142;24.826;2022-11-20T14:57:30;-4.90;99.90
58309;DHT22;44117;57.142;24.826;2022-11-20T15:02:42;-4.80;99.90
58309;DHT22;44117;57.142;24.826;2022-11-20T15:05:09;-4.80;99.90
58309;DHT22;44117;57.142;24.826;2022-11-20T15:07:42;-4.80;99.90
58309;DHT22;44117;57.142;24.826;2022-11-20T15:12:51;-4.80;99.90
58309;DHT22;44117;57.142;24.826;2022-11-20T15:15:30;-4.70;99.90
58309;DHT22;44117;57.142;24.826;2022-11-20T15:17:58;-4.70;99.90
58309;DHT22;44117;57.142;24.826;2022-11-20T15:20:28;-4.70;99.90
58309;DHT22;44117;57.142;24.826;2022-11-20T15:22:57;-4.60;99.90
58309;DHT22;44117;57.142;24.826;2022-11-20T15:25:24;-4.60;99.90
58309;DHT22;44117;57.142;24.826;2022-11-20T15:27:55;-4.70;99.90
58309;DHT22;44117;57.142;24.826;2022-11-20T15:30:23;-4.60;99.90
58309;DHT22;44117;57.142;24.826;2022-11-20T15:32:51;-4.60;99.90
58309;DHT22;44117;57.142;24.826;2022-11-20T15:35:18;-4.70;99.90
58309;DHT22;44117;57.142;24.826;2022-11-20T15:37:45;-4.70;99.90
58309;DHT22;44117;57.142;24.826;2022-11-20T15:40:13;-4.70;99.90
58309;DHT22;44117;57.142;24.826;2022-11-20T15:42:40;-4.70;99.90
58309;DHT22;44117;57.142;24.826;2022-11-20T15:45:37;-4.70;99.90
58309;DHT22;44117;57.142;24.826;2022-11-20T15:48:17;-4.70;99.90
58309;DHT22;44117;57.142;24.826;2022-11-20T15:53:40;-4.80;99.90
58309;DHT22;44117;57.142;24.826;2022-11-20T15:56:14;-4.80;99.90
58309;DHT22;44117;57.142;24.826;2022-11-20T15:58:41;-4.80;99.90
58309;DHT22;44117;57.142;24.826;2022-11-20T16:01:15;-4.80;99.90
58309;DHT22;44117;57.142;24.826;2022-11-20T16:03:43;-4.80;99.90
58309;DHT22;44117;57.142;24.826;2022-11-20T16:06:10;-4.80;99.90
58309;DHT22;44117;57.142;24.826;2022-11-20T16:08:37;-4.80;99.90
58309;DHT22;44117;57.142;24.826;2022-11-20T16:11:05;-4.80;99.90
58309;DHT22;44117;57.142;24.826;2022-11-20T16:13:32;-4.80;99.90
58309;DHT22;44117;57.142;24.826;2022-11-20T16:16:23;-4.90;99.90
58309;DHT22;44117;57.142;24.826;2022-11-20T16:18:52;-4.90;99.90
58309;DHT22;44117;57.142;24.826;2022-11-20T16:21:20;-4.90;99.90
58309;DHT22;44117;57.142;24.826;2022-11-20T16:23:47;-4.90;99.90
58309;DHT22;44117;57.142;24.826;2022-11-20T16:26:16;-5.00;99.90
58309;DHT22;44117;57.142;24.826;2022-11-20T16:28:47;-5.00;99.90
58309;DHT22;44117;57.142;24.826;2022-11-20T16:31:18;-5.10;99.90
58309;DHT22;44117;57.142;24.826;2022-11-20T16:33:50;-5.10;99.90
58309;DHT22;44117;57.142;24.826;2022-11-20T16:36:19;-5.10;99.90
58309;DHT22;44117;57.142;24.826;2022-11-20T16:38:51;-5.20;99.90
58309;DHT22;44117;57.142;24.826;2022-11-20T16:41:18;-5.10;99.90
58309;DHT22;44117;57.142;24.826;2022-11-20T16:43:47;-5.10;99.90
58309;DHT22;44117;57.142;24.826;2022-11-20T16:46:16;-5.10;99.90
58309;DHT22;44117;57.142;24.826;2022-11-20T16:48:44;-5.10;99.90
58309;DHT22;44117;57.142;24.826;2022-11-20T16:51:11;-5.10;99.90
58309;DHT22;44117;57.142;24.826;2022-11-20T16:53:39;-5.10;99.90
58309;DHT22;44117;57.142;24.826;2022-11-20T16:56:14;-5.20;99.90
58309;DHT22;44117;57.142;24.826;2022-11-20T16:58:44;-5.10;99.90
58309;DHT22;44117;57.142;24.826;2022-11-20T17:01:14;-5.10;99.90
58309;DHT22;44117;57.142;24.826;2022-11-20T17:03:43;-5.20;99.90
58309;DHT22;44117;57.142;24.826;2022-11-20T17:06:19;-5.10;99.90
58309;DHT22;44117;57.142;24.826;2022-11-20T17:08:46;-5.10;99.90
58309;DHT22;44117;57.142;24.826;2022-11-20T17:11:16;-5.10;99.90
58309;DHT22;44117;57.142;24.826;2022-11-20T17:13:45;-5.10;99.90
58309;DHT22;44117;57.142;24.826;2022-11-20T17:16:21;-5.10;99.90